createdAt,value
2018-02-21T00:01:59.169Z,64.80
2018-02-21T00:04:26.636Z,64.90
2018-02-21T00:06:54.078Z,65.00
2018-02-21T00:09:21.525Z,65.20
2018-02-21T00:11:49.078Z,64.90
2018-02-21T00:14:16.527Z,64.90
2018-02-21T00:16:43.973Z,65.00
2018-02-21T00:19:12.911Z,65.20
2018-02-21T00:21:40.403Z,65.30
2018-02-21T00:24:07.874Z,65.60
2018-02-21T00:26:36.073Z,65.00
2018-02-21T00:29:03.521Z,65.70
2018-02-21T00:31:34.313Z,65.40
2018-02-21T00:34:01.775Z,65.30
2018-02-21T00:36:29.247Z,65.40
2018-02-21T00:38:57.002Z,65.20
2018-02-21T00:41:24.600Z,65.20
2018-02-21T00:43:52.054Z,65.30
2018-02-21T00:46:19.520Z,65.10
2018-02-21T00:48:46.982Z,65.40
2018-02-21T00:51:14.510Z,65.30
2018-02-21T00:53:41.959Z,65.30
2018-02-21T00:56:09.413Z,65.30
2018-02-21T00:58:36.857Z,65.40
2018-02-21T01:01:10.054Z,65.50
2018-02-21T01:03:37.500Z,65.80
2018-02-21T01:06:04.960Z,65.90
2018-02-21T01:08:32.438Z,66.10
2018-02-21T01:10:59.878Z,66.40
2018-02-21T01:13:27.350Z,66.70
2018-02-21T01:15:54.969Z,66.60
2018-02-21T01:18:22.458Z,66.80
2018-02-21T01:20:49.929Z,66.90
2018-02-21T01:23:17.397Z,66.80
2018-02-21T01:25:44.869Z,66.70
2018-02-21T01:28:12.312Z,66.40
2018-02-21T01:30:39.754Z,66.60
2018-02-21T01:33:07.982Z,66.70
2018-02-21T01:35:35.425Z,66.70
2018-02-21T01:38:02.890Z,66.70
2018-02-21T01:40:30.339Z,66.70
2018-02-21T01:42:58.899Z,66.10
2018-02-21T01:45:26.375Z,65.90
2018-02-21T01:47:53.828Z,66.10
2018-02-21T01:50:21.295Z,66.00
2018-02-21T01:52:48.761Z,66.00
2018-02-21T01:55:16.203Z,67.00
2018-02-21T01:57:43.672Z,65.60
2018-02-21T02:00:11.117Z,66.50
2018-02-21T02:02:38.593Z,66.50
2018-02-21T02:05:06.268Z,66.60
2018-02-21T02:07:33.714Z,66.60
2018-02-21T02:10:01.166Z,66.50
2018-02-21T02:12:28.631Z,66.40
2018-02-21T02:14:56.104Z,66.20
2018-02-21T02:17:23.553Z,66.30
2018-02-21T02:19:51.001Z,66.40
2018-02-21T02:22:18.469Z,66.40
2018-02-21T02:24:45.921Z,66.40
2018-02-21T02:27:13.385Z,66.60
2018-02-21T02:29:40.824Z,67.60
2018-02-21T02:32:08.279Z,67.10
2018-02-21T02:34:35.732Z,67.20
2018-02-21T02:37:03.172Z,67.40
2018-02-21T02:39:43.260Z,67.60
2018-02-21T02:42:10.716Z,67.50
2018-02-21T02:44:38.176Z,67.60
2018-02-21T02:47:05.622Z,67.70
2018-02-21T02:49:33.069Z,67.90
2018-02-21T02:52:00.530Z,67.90
2018-02-21T02:54:27.981Z,67.80
2018-02-21T02:56:55.417Z,67.70
2018-02-21T02:59:22.883Z,67.50
2018-02-21T03:01:50.337Z,67.60
2018-02-21T03:04:17.796Z,67.60
2018-02-21T03:06:45.272Z,67.60
2018-02-21T03:09:12.741Z,67.50
2018-02-21T03:11:40.200Z,67.70
2018-02-21T03:14:07.682Z,67.90
2018-02-21T03:16:35.129Z,67.70
2018-02-21T03:19:02.581Z,67.60
2018-02-21T03:21:30.080Z,67.80
2018-02-21T03:23:57.525Z,67.90
2018-02-21T03:26:24.966Z,68.10
2018-02-21T03:28:52.426Z,68.20
2018-02-21T03:31:19.887Z,68.40
2018-02-21T03:33:47.329Z,68.80
2018-02-21T03:36:14.786Z,69.10
2018-02-21T03:38:42.236Z,69.40
2018-02-21T03:41:09.682Z,69.80
2018-02-21T03:43:37.154Z,70.00
2018-02-21T03:46:06.191Z,70.00
2018-02-21T03:48:33.641Z,70.10
2018-02-21T03:51:01.097Z,70.00
2018-02-21T03:53:28.539Z,70.00
2018-02-21T03:55:55.981Z,70.00
2018-02-21T03:58:23.429Z,70.10
2018-02-21T04:00:50.878Z,70.00
2018-02-21T04:03:18.322Z,70.30
2018-02-21T04:05:45.792Z,70.30
2018-02-21T04:08:13.242Z,70.30
2018-02-21T04:10:40.687Z,70.30
2018-02-21T04:13:08.151Z,70.00
2018-02-21T04:15:35.595Z,69.80
2018-02-21T04:18:03.036Z,69.90
2018-02-21T04:20:30.496Z,69.90
2018-02-21T04:22:57.968Z,69.90
2018-02-21T04:25:25.422Z,69.90
2018-02-21T04:27:52.887Z,69.80
2018-02-21T04:30:20.333Z,69.90
2018-02-21T04:32:48.049Z,69.90
2018-02-21T04:35:15.598Z,70.20
2018-02-21T04:37:43.045Z,70.10
2018-02-21T04:40:10.490Z,70.10
2018-02-21T04:42:37.972Z,70.10
2018-02-21T04:45:05.434Z,70.20
2018-02-21T04:47:32.893Z,71.00
2018-02-21T04:50:00.342Z,70.30
2018-02-21T04:52:27.781Z,70.50
2018-02-21T04:54:59.080Z,70.70
2018-02-21T04:57:32.230Z,71.30
2018-02-21T05:00:03.270Z,71.70
2018-02-21T05:02:30.733Z,72.10
2018-02-21T05:04:58.204Z,72.50
2018-02-21T05:07:25.663Z,72.70
2018-02-21T05:09:53.127Z,73.00
2018-02-21T05:12:20.581Z,73.40
2018-02-21T05:14:48.029Z,73.50
2018-02-21T05:17:16.241Z,74.30
2018-02-21T05:19:43.706Z,74.20
2018-02-21T05:22:11.154Z,74.80
2018-02-21T05:24:38.600Z,74.90
2018-02-21T05:27:06.067Z,75.40
2018-02-21T05:29:40.357Z,75.50
2018-02-21T05:32:07.835Z,75.90
2018-02-21T05:34:35.276Z,76.20
2018-02-21T05:37:02.719Z,76.60
2018-02-21T05:39:30.177Z,76.90
2018-02-21T05:42:00.335Z,77.10
2018-02-21T05:44:28.557Z,77.80
2018-02-21T05:46:56.001Z,77.70
2018-02-21T05:49:23.450Z,77.80
2018-02-21T05:51:50.919Z,78.10
2018-02-21T05:54:18.656Z,78.20
2018-02-21T05:56:46.099Z,78.40
2018-02-21T05:59:13.574Z,79.30
2018-02-21T06:01:41.010Z,78.60
2018-02-21T06:04:08.462Z,78.90
2018-02-21T06:06:35.936Z,79.10
2018-02-21T06:09:03.386Z,79.20
2018-02-21T06:11:30.859Z,79.20
2018-02-21T06:13:58.313Z,79.40
2018-02-21T06:16:25.759Z,79.40
2018-02-21T06:18:53.206Z,79.50
2018-02-21T06:21:20.677Z,79.70
2018-02-21T06:23:48.117Z,79.60
2018-02-21T06:26:15.553Z,79.70
2018-02-21T06:28:43.001Z,79.50
2018-02-21T06:31:13.697Z,79.60
2018-02-21T06:33:41.144Z,79.50
2018-02-21T06:36:08.589Z,79.70
2018-02-21T06:38:36.800Z,79.70
2018-02-21T06:41:04.268Z,79.70
2018-02-21T06:43:31.737Z,79.80
2018-02-21T06:45:59.190Z,80.00
2018-02-21T06:48:26.685Z,80.20
2018-02-21T06:50:54.161Z,80.60
2018-02-21T06:53:21.602Z,80.60
2018-02-21T06:55:49.046Z,80.90
2018-02-21T06:58:16.727Z,81.10
2018-02-21T07:00:44.182Z,81.20
2018-02-21T07:03:11.633Z,81.30
2018-02-21T07:05:39.092Z,81.30
2018-02-21T07:08:06.544Z,81.30
2018-02-21T07:10:34.006Z,81.30
2018-02-21T07:13:01.476Z,81.30
2018-02-21T07:15:28.944Z,81.30
2018-02-21T07:17:56.374Z,81.10
2018-02-21T07:20:23.825Z,81.20
2018-02-21T07:22:51.284Z,81.90
2018-02-21T07:25:18.721Z,81.00
2018-02-21T07:27:46.190Z,80.90
2018-02-21T07:30:14.408Z,80.40
2018-02-21T07:32:41.861Z,80.30
2018-02-21T07:35:09.322Z,79.90
2018-02-21T07:37:36.757Z,78.00
2018-02-21T07:40:05.303Z,73.60
2018-02-21T07:42:32.753Z,73.50
2018-02-21T07:45:00.201Z,70.90
2018-02-21T07:47:27.652Z,68.80
2018-02-21T07:49:55.096Z,67.50
2018-02-21T07:52:23.320Z,64.30
2018-02-21T07:54:50.771Z,64.10
2018-02-21T07:57:18.214Z,62.70
2018-02-21T07:59:45.670Z,61.20
2018-02-21T08:02:13.365Z,59.80
2018-02-21T08:04:40.805Z,58.30
2018-02-21T08:07:08.264Z,57.60
2018-02-21T08:09:35.692Z,56.70
2018-02-21T08:12:03.918Z,53.70
2018-02-21T08:14:31.357Z,53.60
2018-02-21T08:16:59.565Z,52.00
2018-02-21T08:19:27.033Z,51.80
2018-02-21T08:21:54.893Z,50.00
2018-02-21T08:24:22.369Z,48.90
2018-02-21T08:26:49.822Z,48.20
2018-02-21T08:29:17.269Z,47.60
2018-02-21T08:31:44.747Z,46.90
2018-02-21T08:34:12.190Z,45.50
2018-02-21T08:36:39.652Z,45.00
2018-02-21T08:39:07.302Z,44.50
2018-02-21T08:41:34.764Z,44.00
2018-02-21T08:44:02.225Z,43.50
2018-02-21T08:46:29.676Z,42.70
2018-02-21T08:48:57.765Z,41.70
2018-02-21T08:51:25.217Z,41.80
2018-02-21T08:53:52.673Z,41.70
2018-02-21T08:56:20.130Z,41.00
2018-02-21T08:58:47.650Z,39.80
2018-02-21T09:01:15.842Z,40.00
2018-02-21T09:03:43.300Z,40.00
2018-02-21T09:06:10.762Z,39.50
2018-02-21T09:08:38.210Z,39.20
2018-02-21T09:11:05.669Z,38.80
2018-02-21T09:13:33.118Z,38.30
2018-02-21T09:16:00.616Z,37.60
2018-02-21T09:18:28.086Z,37.60
2018-02-21T09:20:55.533Z,36.70
2018-02-21T09:23:22.989Z,36.20
2018-02-21T09:25:50.440Z,36.40
2018-02-21T09:28:18.018Z,35.80
2018-02-21T09:30:45.483Z,36.00
2018-02-21T09:33:12.937Z,35.70
2018-02-21T09:35:40.399Z,35.60
2018-02-21T09:38:07.885Z,35.10
2018-02-21T09:40:35.342Z,35.10
2018-02-21T09:43:02.822Z,35.30
2018-02-21T09:45:31.054Z,34.30
2018-02-21T09:47:58.534Z,34.20
2018-02-21T09:50:25.983Z,33.80
2018-02-21T09:52:53.415Z,33.10
2018-02-21T09:55:21.037Z,33.80
2018-02-21T09:57:48.486Z,33.80
2018-02-21T10:00:15.963Z,33.80
2018-02-21T10:02:43.420Z,33.60
2018-02-21T10:05:10.866Z,33.10
2018-02-21T10:07:38.329Z,33.10
2018-02-21T10:10:05.776Z,33.00
2018-02-21T10:12:33.241Z,33.20
2018-02-21T10:15:00.694Z,33.30
2018-02-21T10:17:28.145Z,33.40
2018-02-21T10:19:55.611Z,33.50
2018-02-21T10:22:23.067Z,33.60
2018-02-21T10:24:50.535Z,33.60
2018-02-21T10:27:17.981Z,33.90
2018-02-21T10:29:45.431Z,34.20
2018-02-21T10:32:12.883Z,33.50
2018-02-21T10:34:40.347Z,33.20
2018-02-21T10:37:07.809Z,33.20
2018-02-21T10:39:35.266Z,32.80
2018-02-21T10:42:02.723Z,32.40
2018-02-21T10:44:30.189Z,32.10
2018-02-21T10:46:57.641Z,31.20
2018-02-21T10:49:25.178Z,30.60
2018-02-21T10:51:52.631Z,30.30
2018-02-21T10:54:20.114Z,30.10
2018-02-21T10:56:48.339Z,30.10
2018-02-21T10:59:15.806Z,30.00
2018-02-21T11:01:43.283Z,29.60
2018-02-21T11:04:10.726Z,29.80
2018-02-21T11:06:38.174Z,30.30
2018-02-21T11:09:05.651Z,30.50
2018-02-21T11:11:33.150Z,30.70
2018-02-21T11:14:00.621Z,30.70
2018-02-21T11:16:28.071Z,31.10
2018-02-21T11:18:55.521Z,31.20
2018-02-21T11:21:23.058Z,31.40
2018-02-21T11:23:50.658Z,30.90
2018-02-21T11:26:18.113Z,30.60
2018-02-21T11:28:45.567Z,29.90
2018-02-21T11:31:13.665Z,29.80
2018-02-21T11:33:41.134Z,29.70
2018-02-21T11:36:08.598Z,29.10
2018-02-21T11:38:36.066Z,28.30
2018-02-21T11:41:03.529Z,28.60
2018-02-21T11:43:31.377Z,28.30
2018-02-21T11:45:58.866Z,28.10
2018-02-21T11:48:27.077Z,27.50
2018-02-21T11:50:54.588Z,27.50
2018-02-21T11:53:22.009Z,27.10
2018-02-21T11:55:49.462Z,26.40
2018-02-21T11:58:16.935Z,26.60
2018-02-21T12:00:44.509Z,26.60
2018-02-21T12:03:11.969Z,26.30
2018-02-21T12:05:39.418Z,26.30
2018-02-21T12:08:06.889Z,26.10
2018-02-21T12:10:34.367Z,26.50
2018-02-21T12:13:02.025Z,26.10
2018-02-21T12:15:29.902Z,26.30
2018-02-21T12:17:57.681Z,26.10
2018-02-21T12:20:25.154Z,26.40
2018-02-21T12:22:53.381Z,26.30
2018-02-21T12:25:20.853Z,26.30
2018-02-21T12:27:48.621Z,26.10
2018-02-21T12:30:16.075Z,25.90
2018-02-21T12:32:49.086Z,25.40
2018-02-21T12:35:16.546Z,25.90
2018-02-21T12:37:44.793Z,26.40
2018-02-21T12:40:17.823Z,26.40
2018-02-21T12:42:45.316Z,25.90
2018-02-21T12:45:13.080Z,25.30
2018-02-21T12:47:40.535Z,25.00
2018-02-21T12:50:08.156Z,25.70
2018-02-21T12:52:35.568Z,26.10
2018-02-21T12:55:03.422Z,26.20
2018-02-21T12:57:30.877Z,25.50
2018-02-21T12:59:58.553Z,25.60
2018-02-21T13:02:26.013Z,25.50
2018-02-21T13:04:53.454Z,25.50
2018-02-21T13:07:20.886Z,25.50
2018-02-21T13:09:48.341Z,25.50
2018-02-21T13:12:16.233Z,25.40
2018-02-21T13:14:43.704Z,25.50
2018-02-21T13:17:11.153Z,25.90
2018-02-21T13:19:38.633Z,25.70
2018-02-21T13:22:06.329Z,25.20
2018-02-21T13:24:33.786Z,25.20
2018-02-21T13:27:02.379Z,24.90
2018-02-21T13:29:29.801Z,24.70
2018-02-21T13:31:57.260Z,24.30
2018-02-21T13:34:24.717Z,24.20
2018-02-21T13:36:52.158Z,25.00
2018-02-21T13:39:19.621Z,24.50
2018-02-21T13:41:47.088Z,24.50
2018-02-21T13:44:14.533Z,24.70
2018-02-21T13:46:43.089Z,24.20
2018-02-21T13:49:10.573Z,24.20
2018-02-21T13:51:38.033Z,24.10
2018-02-21T13:54:05.482Z,24.70
2018-02-21T13:56:32.928Z,25.00
2018-02-21T13:59:00.389Z,24.80
2018-02-21T14:01:27.922Z,25.20
2018-02-21T14:03:55.362Z,25.10
2018-02-21T14:06:22.802Z,25.40
2018-02-21T14:08:50.254Z,26.20
2018-02-21T14:11:17.718Z,25.60
2018-02-21T14:13:45.176Z,25.50
2018-02-21T14:16:15.311Z,26.00
2018-02-21T14:18:42.769Z,26.30
2018-02-21T14:21:10.223Z,26.40
2018-02-21T14:23:37.699Z,26.30
2018-02-21T14:26:05.152Z,26.20
2018-02-21T14:28:32.699Z,25.80
2018-02-21T14:31:00.139Z,25.90
2018-02-21T14:33:27.638Z,26.20
2018-02-21T14:35:55.102Z,27.20
2018-02-21T14:38:22.556Z,27.70
2018-02-21T14:40:50.005Z,28.20
2018-02-21T14:43:17.448Z,28.60
2018-02-21T14:45:44.905Z,28.90
2018-02-21T14:48:12.436Z,29.60
2018-02-21T14:50:39.990Z,29.90
2018-02-21T14:53:08.219Z,31.30
2018-02-21T14:55:35.670Z,31.20
2018-02-21T14:58:03.128Z,31.70
2018-02-21T15:00:30.609Z,32.20
2018-02-21T15:02:59.682Z,32.60
2018-02-21T15:05:27.130Z,32.50
2018-02-21T15:07:54.578Z,32.80
2018-02-21T15:10:22.794Z,33.90
2018-02-21T15:12:50.245Z,34.00
2018-02-21T15:15:17.681Z,35.60
2018-02-21T15:17:45.184Z,36.00
2018-02-21T15:20:12.652Z,36.60
2018-02-21T15:22:41.632Z,35.90
2018-02-21T15:25:09.073Z,35.80
2018-02-21T15:27:36.881Z,35.40
2018-02-21T15:30:04.353Z,35.50
2018-02-21T15:32:31.810Z,35.90
2018-02-21T15:34:59.264Z,36.60
2018-02-21T15:37:26.705Z,37.90
2018-02-21T15:39:54.153Z,38.70
2018-02-21T15:42:21.610Z,38.70
2018-02-21T15:44:49.050Z,38.80
2018-02-21T15:47:17.262Z,39.90
2018-02-21T15:49:44.725Z,39.80
2018-02-21T15:52:12.210Z,40.30
2018-02-21T15:54:39.657Z,40.70
2018-02-21T15:57:07.097Z,40.90
2018-02-21T15:59:34.543Z,41.50
2018-02-21T16:02:02.764Z,42.60
2018-02-21T16:04:30.200Z,42.50
2018-02-21T16:06:57.657Z,43.00
2018-02-21T16:09:25.118Z,43.50
2018-02-21T16:11:52.573Z,43.90
2018-02-21T16:14:20.789Z,44.00
2018-02-21T16:16:48.249Z,43.90
2018-02-21T16:19:15.720Z,44.10
2018-02-21T16:21:43.178Z,44.60
2018-02-21T16:24:10.871Z,44.60
2018-02-21T16:26:38.323Z,44.90
2018-02-21T16:29:05.777Z,45.50
2018-02-21T16:31:33.240Z,45.50
2018-02-21T16:34:00.689Z,45.30
2018-02-21T16:36:28.141Z,45.90
2018-02-21T16:38:55.600Z,45.50
2018-02-21T16:41:23.042Z,46.10
2018-02-21T16:43:54.765Z,46.30
2018-02-21T16:46:22.214Z,46.50
2018-02-21T16:48:49.661Z,46.70
2018-02-21T16:51:17.134Z,46.90
2018-02-21T16:53:45.366Z,47.10
2018-02-21T16:56:12.817Z,47.40
2018-02-21T16:58:40.269Z,47.40
2018-02-21T17:01:11.981Z,47.20
2018-02-21T17:03:39.426Z,47.00
2018-02-21T17:06:06.874Z,47.00
2018-02-21T17:08:34.325Z,47.10
2018-02-21T17:11:01.760Z,47.20
2018-02-21T17:13:29.194Z,47.20
2018-02-21T17:15:56.665Z,47.40
2018-02-21T17:18:24.113Z,47.30
2018-02-21T17:20:51.574Z,47.50
2018-02-21T17:23:19.031Z,47.70
2018-02-21T17:25:46.469Z,48.00
2018-02-21T17:28:13.931Z,48.00
2018-02-21T17:30:41.385Z,48.10
2018-02-21T17:33:08.846Z,48.30
2018-02-21T17:35:36.301Z,48.60
2018-02-21T17:38:03.740Z,48.50
2018-02-21T17:40:31.205Z,48.60
2018-02-21T17:42:59.483Z,48.90
2018-02-21T17:45:27.695Z,49.00
2018-02-21T17:47:55.142Z,48.90
2018-02-21T17:50:22.592Z,49.30
2018-02-21T17:52:50.837Z,49.60
2018-02-21T17:55:18.280Z,49.50
2018-02-21T17:57:45.741Z,49.80
2018-02-21T18:00:13.204Z,49.90
2018-02-21T18:02:40.650Z,50.00
2018-02-21T18:05:08.104Z,50.20
2018-02-21T18:07:35.556Z,50.30
2018-02-21T18:10:03.089Z,50.40
2018-02-21T18:12:31.319Z,50.70
2018-02-21T18:14:58.781Z,50.70
2018-02-21T18:17:26.218Z,51.00
2018-02-21T18:19:53.657Z,51.10
2018-02-21T18:22:21.882Z,51.00
2018-02-21T18:24:49.338Z,50.80
2018-02-21T18:27:16.802Z,51.20
2018-02-21T18:29:44.241Z,51.50
2018-02-21T18:32:11.691Z,51.70
2018-02-21T18:34:39.910Z,52.20
2018-02-21T18:37:07.357Z,52.20
2018-02-21T18:39:34.813Z,52.20
2018-02-21T18:42:02.271Z,52.50
2018-02-21T18:44:29.728Z,52.60
2018-02-21T18:46:57.189Z,52.90
2018-02-21T18:49:24.635Z,53.30
2018-02-21T18:51:52.110Z,53.50
2018-02-21T18:54:19.552Z,54.00
2018-02-21T18:56:47.002Z,54.20
2018-02-21T18:59:14.468Z,54.30
2018-02-21T19:01:41.940Z,54.60
2018-02-21T19:04:09.395Z,54.80
2018-02-21T19:06:36.835Z,54.90
2018-02-21T19:09:04.570Z,55.00
2018-02-21T19:11:32.040Z,55.00
2018-02-21T19:14:00.384Z,55.20
2018-02-21T19:16:27.841Z,55.00
2018-02-21T19:18:55.285Z,54.70
2018-02-21T19:21:24.575Z,54.70
2018-02-21T19:23:52.036Z,54.70
2018-02-21T19:26:22.646Z,54.60
2018-02-21T19:28:50.101Z,54.40
2018-02-21T19:31:17.567Z,54.50
2018-02-21T19:33:44.997Z,54.60
2018-02-21T19:36:12.462Z,54.80
2018-02-21T19:38:39.904Z,55.10
2018-02-21T19:41:08.141Z,55.30
2018-02-21T19:43:35.599Z,55.20
2018-02-21T19:46:03.034Z,55.50
2018-02-21T19:48:30.497Z,54.70
2018-02-21T19:51:01.125Z,54.80
2018-02-21T19:53:28.608Z,54.70
2018-02-21T19:55:56.041Z,54.80
2018-02-21T19:58:23.485Z,55.00
2018-02-21T20:00:51.716Z,55.60
2018-02-21T20:03:20.101Z,55.50
2018-02-21T20:05:47.537Z,55.80
2018-02-21T20:08:14.984Z,56.00
2018-02-21T20:10:42.434Z,56.10
2018-02-21T20:13:09.910Z,56.10
2018-02-21T20:15:37.341Z,56.20
2018-02-21T20:18:04.797Z,56.30
2018-02-21T20:20:32.242Z,56.60
2018-02-21T20:22:59.681Z,56.80
2018-02-21T20:25:27.173Z,56.90
2018-02-21T20:27:54.638Z,57.00
2018-02-21T20:30:22.086Z,57.20
2018-02-21T20:32:49.533Z,57.40
2018-02-21T20:35:16.995Z,57.50
2018-02-21T20:37:44.434Z,58.00
2018-02-21T20:40:11.899Z,58.10
2018-02-21T20:42:39.369Z,58.30
2018-02-21T20:45:06.891Z,58.50
2018-02-21T20:47:34.296Z,58.60
2018-02-21T20:50:01.745Z,58.70
2018-02-21T20:52:29.225Z,58.80
2018-02-21T20:54:56.690Z,58.90
2018-02-21T20:57:24.124Z,58.90
2018-02-21T20:59:51.861Z,59.00
2018-02-21T21:02:19.322Z,58.80
2018-02-21T21:04:47.277Z,58.90
2018-02-21T21:07:14.733Z,59.00
2018-02-21T21:09:42.186Z,59.10
2018-02-21T21:12:09.673Z,59.30
2018-02-21T21:14:37.117Z,59.50
2018-02-21T21:17:04.787Z,59.50
2018-02-21T21:19:32.276Z,59.60
2018-02-21T21:21:59.717Z,59.70
2018-02-21T21:24:27.176Z,59.80
2018-02-21T21:26:54.612Z,60.00
2018-02-21T21:29:22.064Z,60.20
2018-02-21T21:31:49.524Z,60.30
2018-02-21T21:34:16.968Z,60.70
2018-02-21T21:36:44.433Z,60.80
2018-02-21T21:39:11.894Z,61.00
2018-02-21T21:41:39.356Z,61.20
2018-02-21T21:44:06.802Z,61.30
2018-02-21T21:46:35.349Z,61.60
2018-02-21T21:49:02.843Z,61.50
2018-02-21T21:51:30.284Z,61.70
2018-02-21T21:53:57.728Z,61.80
2018-02-21T21:56:25.178Z,62.00
2018-02-21T21:58:52.613Z,62.20
2018-02-21T22:01:20.093Z,62.20
2018-02-21T22:03:47.524Z,62.60
2018-02-21T22:06:14.965Z,62.60
2018-02-21T22:08:42.439Z,62.70
2018-02-21T22:11:09.876Z,62.90
2018-02-21T22:13:38.360Z,63.10
2018-02-21T22:16:06.215Z,63.20
2018-02-21T22:18:33.657Z,63.20
2018-02-21T22:21:01.118Z,63.50
2018-02-21T22:23:28.575Z,63.60
2018-02-21T22:25:56.046Z,63.60
2018-02-21T22:28:23.527Z,63.80
2018-02-21T22:30:50.956Z,64.00
2018-02-21T22:33:18.415Z,64.10
2018-02-21T22:35:45.853Z,64.30
2018-02-21T22:38:13.322Z,64.70
2018-02-21T22:40:40.761Z,64.70
2018-02-21T22:43:08.235Z,65.10
2018-02-21T22:45:35.696Z,65.40
2018-02-21T22:48:03.140Z,65.60
2018-02-21T22:50:30.604Z,65.60
2018-02-21T22:52:58.055Z,65.80
2018-02-21T22:55:25.510Z,66.00
2018-02-21T22:57:52.962Z,66.20
2018-02-21T23:00:20.409Z,66.10
2018-02-21T23:02:47.857Z,66.30
2018-02-21T23:05:15.301Z,66.40
2018-02-21T23:07:42.741Z,66.40
2018-02-21T23:10:10.968Z,66.90
2018-02-21T23:12:38.431Z,66.80
2018-02-21T23:15:05.893Z,67.00
2018-02-21T23:17:33.334Z,67.00
2018-02-21T23:20:00.781Z,67.20
2018-02-21T23:22:33.793Z,67.20
2018-02-21T23:25:01.229Z,67.20
2018-02-21T23:27:28.948Z,67.40
2018-02-21T23:29:56.392Z,67.50
2018-02-21T23:32:23.835Z,67.50
2018-02-21T23:34:51.297Z,67.50
2018-02-21T23:37:18.740Z,67.60
2018-02-21T23:39:46.218Z,67.50
2018-02-21T23:42:13.657Z,67.70
2018-02-21T23:44:41.100Z,67.60
2018-02-21T23:47:08.718Z,67.60
2018-02-21T23:49:36.162Z,67.80
2018-02-21T23:52:03.633Z,67.80
2018-02-21T23:54:31.096Z,67.90
2018-02-21T23:56:58.776Z,67.90
2018-02-21T23:59:26.225Z,67.80
